Time;durP1;ratioP1;P1;durP2;ratioP2;P2;SDS_P1;SDS_P2;PMS_P1;PMS_P2;Temp;Humidity;BMP_temperature;BMP_pressure;BME280_temperature;BME280_humidity;BME280_pressure;Samples;Min_cycle;Max_cycle;Signal;HPM_P1;HPM_P2
2023/04/10 00:00:44;;;;;;;18.07;13.37;;;10.10;99.90;;;;;;4849646;29;20234;-58
2023/04/10 00:03:12;;;;;;;19.40;13.47;;;10.00;99.90;;;;;;4853866;29;20241;-58
2023/04/10 00:05:42;;;;;;;15.33;12.33;;;10.00;99.90;;;;;;4841041;29;20215;-58
2023/04/10 00:08:11;;;;;;;14.30;11.73;;;10.00;99.90;;;;;;4857500;29;20235;-59
2023/04/10 00:10:39;;;;;;;19.80;12.87;;;9.90;99.90;;;;;;4842989;29;20242;-58
2023/04/10 00:13:07;;;;;;;17.67;12.33;;;9.90;99.90;;;;;;4852625;29;20227;-59
2023/04/10 00:15:36;;;;;;;19.17;12.40;;;9.90;99.90;;;;;;4857766;29;20242;-58
2023/04/10 00:18:04;;;;;;;17.03;12.63;;;9.90;99.90;;;;;;4854399;29;20227;-59
2023/04/10 00:20:32;;;;;;;17.87;12.17;;;9.80;99.90;;;;;;4850727;29;20246;-58
2023/04/10 00:23:02;;;;;;;16.23;11.73;;;9.80;99.90;;;;;;4853383;29;20256;-58
2023/04/10 00:25:30;;;;;;;15.97;11.63;;;9.80;99.90;;;;;;4858702;29;20218;-58
2023/04/10 00:27:58;;;;;;;17.67;12.23;;;9.70;99.90;;;;;;4850164;29;20228;-58
2023/04/10 00:30:27;;;;;;;18.23;12.00;;;9.60;99.90;;;;;;4851684;29;20231;-58
2023/04/10 00:32:55;;;;;;;15.93;12.03;;;9.50;99.90;;;;;;4857152;29;20746;-58
2023/04/10 00:35:23;;;;;;;15.80;11.90;;;9.50;99.90;;;;;;4857872;29;20275;-58
2023/04/10 00:37:53;;;;;;;17.40;12.27;;;9.50;99.90;;;;;;4856858;29;20271;-57
2023/04/10 00:40:23;;;;;;;15.57;11.70;;;9.40;99.90;;;;;;4859174;29;20275;-58
2023/04/10 00:42:51;;;;;;;15.63;11.90;;;9.40;99.90;;;;;;4856580;29;20787;-58
2023/04/10 00:45:19;;;;;;;16.13;12.27;;;9.40;99.90;;;;;;4835291;29;20275;-58
2023/04/10 00:47:47;;;;;;;13.90;11.30;;;9.40;99.90;;;;;;4854448;29;20631;-57
2023/04/10 00:50:17;;;;;;;15.97;11.30;;;9.40;99.90;;;;;;4856129;29;20319;-58
2023/04/10 00:52:45;;;;;;;15.07;10.93;;;9.40;99.90;;;;;;4855332;29;20195;-58
2023/04/10 00:55:14;;;;;;;14.57;10.90;;;9.40;99.90;;;;;;4854903;29;20211;-58
2023/04/10 00:57:46;;;;;;;15.20;10.37;;;9.50;99.90;;;;;;4851023;29;20227;-58
2023/04/10 01:00:15;;;;;;;14.53;10.37;;;9.50;99.90;;;;;;4848471;29;20281;-58
2023/04/10 01:02:43;;;;;;;15.00;10.73;;;9.60;99.90;;;;;;4858361;29;20261;-58
2023/04/10 01:05:13;;;;;;;12.93;10.37;;;9.50;99.90;;;;;;4853528;29;20355;-58
2023/04/10 01:07:58;;;;;;;16.23;10.10;;;9.50;99.90;;;;;;4855193;29;20879;-58
2023/04/10 01:10:34;;;;;;;13.23;10.10;;;9.60;99.90;;;;;;4854894;29;20257;-58
2023/04/10 01:13:11;;;;;;;12.97;9.83;;;9.60;99.90;;;;;;4856701;29;20230;-59
2023/04/10 01:15:47;;;;;;;13.67;9.70;;;9.60;99.90;;;;;;4855781;29;20259;-58
2023/04/10 01:18:22;;;;;;;12.27;9.97;;;9.60;99.90;;;;;;4854726;29;20239;-59
2023/04/10 01:20:50;;;;;;;13.20;10.70;;;9.60;99.90;;;;;;4851224;29;20286;-58
2023/04/10 01:23:35;;;;;;;13.17;10.13;;;9.70;99.90;;;;;;4857847;29;20231;-59
2023/04/10 01:26:06;;;;;;;11.70;9.70;;;9.60;99.90;;;;;;4847386;29;20798;-58
2023/04/10 01:28:52;;;;;;;13.03;10.23;;;9.50;99.90;;;;;;4856510;29;20255;-58
2023/04/10 01:31:29;;;;;;;12.77;9.13;;;9.60;99.90;;;;;;4854840;29;20696;-58
2023/04/10 01:34:02;;;;;;;12.90;9.60;;;9.70;99.90;;;;;;4853313;29;20279;-57
2023/04/10 01:36:36;;;;;;;9.73;8.73;;;9.60;99.90;;;;;;4858719;29;20231;-58
2023/04/10 01:39:06;;;;;;;12.70;9.73;;;9.60;99.90;;;;;;4852106;29;20227;-58
2023/04/10 01:41:36;;;;;;;12.90;9.07;;;9.50;99.90;;;;;;4859307;29;20275;-58
2023/04/10 01:44:07;;;;;;;11.10;9.23;;;9.60;99.90;;;;;;4859060;29;20231;-58
2023/04/10 01:46:38;;;;;;;11.33;9.37;;;9.60;99.90;;;;;;4860245;29;20234;-58
2023/04/10 01:49:07;;;;;;;11.43;9.13;;;9.60;99.90;;;;;;4860233;29;20225;-58
2023/04/10 01:51:36;;;;;;;13.20;9.20;;;9.60;99.90;;;;;;4855119;29;20231;-58
2023/04/10 01:54:05;;;;;;;12.17;8.33;;;9.60;99.90;;;;;;4851363;29;20223;-59
2023/04/10 01:56:34;;;;;;;11.53;9.27;;;9.60;99.90;;;;;;4855796;29;20231;-58
2023/04/10 01:59:04;;;;;;;10.63;8.77;;;9.60;99.90;;;;;;4852852;29;20624;-58
2023/04/10 02:01:33;;;;;;;9.33;8.30;;;9.60;99.90;;;;;;4855846;29;20710;-58
2023/04/10 02:04:02;;;;;;;17.00;9.00;;;9.60;99.90;;;;;;4853651;29;20251;-58
2023/04/10 02:06:41;;;;;;;9.57;8.10;;;9.50;99.90;;;;;;4858733;29;20234;-58
2023/04/10 02:09:16;;;;;;;11.17;8.83;;;9.60;99.90;;;;;;4855999;29;20227;-59
2023/04/10 02:11:49;;;;;;;11.70;8.30;;;9.60;99.90;;;;;;4853282;29;20226;-58
2023/04/10 02:14:20;;;;;;;9.83;8.20;;;9.50;99.90;;;;;;4853966;29;20231;-58
2023/04/10 02:16:54;;;;;;;11.73;8.10;;;9.50;99.90;;;;;;4856917;29;20243;-58
2023/04/10 02:19:25;;;;;;;15.27;8.80;;;9.40;99.90;;;;;;4859325;29;20227;-57
2023/04/10 02:21:54;;;;;;;9.70;8.00;;;9.30;99.90;;;;;;4849797;29;20220;-58
2023/04/10 02:24:23;;;;;;;10.83;8.83;;;9.30;99.90;;;;;;4857434;29;20251;-58
2023/04/10 02:26:52;;;;;;;12.30;8.70;;;9.20;99.90;;;;;;4852939;29;20262;-58
2023/04/10 02:29:21;;;;;;;10.00;8.17;;;9.10;99.90;;;;;;4849290;29;20695;-58
2023/04/10 02:31:50;;;;;;;10.77;8.40;;;9.10;99.90;;;;;;4857388;29;20221;-58
2023/04/10 02:34:19;;;;;;;11.90;8.37;;;9.20;99.90;;;;;;4859169;29;20674;-57
2023/04/10 02:36:47;;;;;;;9.90;7.80;;;9.10;99.90;;;;;;4853314;29;20223;-59
2023/04/10 02:39:15;;;;;;;9.57;8.10;;;9.10;99.90;;;;;;4847916;29;21618;-59
2023/04/10 02:41:43;;;;;;;9.57;7.93;;;9.10;99.90;;;;;;4854965;29;20751;-57
2023/04/10 02:44:12;;;;;;;12.47;8.40;;;9.10;99.90;;;;;;4856856;29;20284;-58
2023/04/10 02:46:40;;;;;;;9.13;8.03;;;9.10;99.90;;;;;;4859286;29;20215;-58
2023/04/10 02:49:10;;;;;;;8.97;7.93;;;9.00;99.90;;;;;;4854309;29;20331;-59
2023/04/10 02:51:38;;;;;;;9.70;8.03;;;9.00;99.90;;;;;;4856544;29;20310;-58
2023/04/10 02:54:06;;;;;;;9.13;8.20;;;9.00;99.90;;;;;;4850306;29;20235;-58
2023/04/10 02:56:35;;;;;;;9.27;8.20;;;9.00;99.90;;;;;;4857371;29;20313;-58
2023/04/10 02:59:03;;;;;;;8.60;7.23;;;9.00;99.90;;;;;;4857697;29;20271;-58
2023/04/10 03:01:31;;;;;;;7.73;6.93;;;9.00;99.90;;;;;;4857549;29;20288;-59
2023/04/10 03:04:01;;;;;;;8.00;7.00;;;9.10;99.90;;;;;;4860054;29;20734;-59
2023/04/10 03:06:31;;;;;;;10.70;7.23;;;9.10;99.90;;;;;;4857895;29;20219;-59
2023/04/10 03:08:59;;;;;;;8.67;7.77;;;9.10;99.90;;;;;;4856050;29;20228;-58
2023/04/10 03:11:28;;;;;;;9.27;7.30;;;9.10;99.90;;;;;;4850580;29;20219;-58
2023/04/10 03:13:57;;;;;;;8.53;7.50;;;9.20;99.90;;;;;;4853777;29;20268;-58
2023/04/10 03:16:25;;;;;;;9.80;7.30;;;9.10;99.90;;;;;;4854516;29;20227;-58
2023/04/10 03:18:53;;;;;;;9.47;7.43;;;9.10;99.90;;;;;;4853381;29;20310;-58
2023/04/10 03:21:21;;;;;;;9.90;7.60;;;9.20;99.90;;;;;;4849830;29;20242;-59
2023/04/10 03:23:51;;;;;;;8.37;7.57;;;9.20;99.90;;;;;;4855466;29;20296;-58
2023/04/10 03:26:22;;;;;;;9.37;7.53;;;9.20;99.90;;;;;;4853790;29;20231;-59
2023/04/10 03:28:52;;;;;;;8.00;7.10;;;9.10;99.90;;;;;;4856056;29;20214;-58
2023/04/10 03:31:21;;;;;;;8.47;7.07;;;9.10;99.90;;;;;;4851438;29;20592;-58
2023/04/10 03:33:49;;;;;;;7.37;6.67;;;9.00;99.90;;;;;;4847236;29;20311;-57
2023/04/10 03:36:17;;;;;;;8.83;7.43;;;9.00;99.90;;;;;;4857238;29;20322;-57
2023/04/10 03:38:46;;;;;;;7.93;7.13;;;8.90;99.90;;;;;;4856684;29;20260;-58
2023/04/10 03:41:15;;;;;;;7.53;6.73;;;8.90;99.90;;;;;;4857365;29;20231;-58
2023/04/10 03:43:43;;;;;;;7.37;6.57;;;8.90;99.90;;;;;;4856212;29;20290;-59
2023/04/10 03:46:12;;;;;;;8.00;7.07;;;8.90;99.90;;;;;;4859125;29;20667;-58
2023/04/10 03:48:40;;;;;;;7.70;7.00;;;8.90;99.90;;;;;;4854419;29;20220;-58
2023/04/10 03:51:08;;;;;;;8.57;6.60;;;8.90;99.90;;;;;;4854399;29;20231;-57
2023/04/10 03:53:37;;;;;;;7.13;6.43;;;8.90;99.90;;;;;;4848482;29;20227;-59
2023/04/10 03:56:06;;;;;;;8.03;7.20;;;8.90;99.90;;;;;;4851512;29;20231;-58
2023/04/10 03:58:35;;;;;;;9.73;7.40;;;8.90;99.90;;;;;;4846688;29;20296;-59
2023/04/10 04:01:05;;;;;;;9.03;7.53;;;8.80;99.90;;;;;;4853441;29;20291;-58
2023/04/10 04:03:33;;;;;;;7.90;7.10;;;8.80;99.90;;;;;;4853488;29;20227;-58
2023/04/10 04:06:01;;;;;;;8.47;7.23;;;8.80;99.90;;;;;;4855375;29;20331;-58
2023/04/10 04:08:30;;;;;;;9.40;7.50;;;8.80;99.90;;;;;;4851017;29;20271;-59
2023/04/10 04:10:58;;;;;;;8.80;7.70;;;8.70;99.90;;;;;;4852749;29;20235;-58
2023/04/10 04:13:26;;;;;;;10.03;7.27;;;8.70;99.90;;;;;;4848218;29;20275;-58
2023/04/10 04:15:55;;;;;;;9.27;7.30;;;8.70;99.90;;;;;;4855923;29;20219;-57
2023/04/10 04:18:24;;;;;;;9.33;7.07;;;8.70;99.90;;;;;;4857547;29;20227;-58
2023/04/10 04:20:52;;;;;;;8.50;7.17;;;8.70;99.90;;;;;;4853168;29;20231;-58
2023/04/10 04:23:20;;;;;;;8.70;7.40;;;8.70;99.90;;;;;;4855581;29;20594;-58
2023/04/10 04:25:51;;;;;;;8.20;7.40;;;8.70;99.90;;;;;;4855026;29;20528;-59
2023/04/10 04:28:19;;;;;;;9.73;7.20;;;8.70;99.90;;;;;;4856995;29;20227;-58
2023/04/10 04:30:48;;;;;;;9.70;7.33;;;8.70;99.90;;;;;;4851349;29;20817;-57
2023/04/10 04:33:17;;;;;;;9.80;7.50;;;8.70;99.90;;;;;;4848056;29;20260;-59
2023/04/10 04:35:45;;;;;;;7.70;7.00;;;8.70;99.90;;;;;;4856272;29;20219;-58
2023/04/10 04:38:15;;;;;;;7.97;7.17;;;8.70;99.90;;;;;;4849733;29;20224;-58
2023/04/10 04:40:43;;;;;;;8.43;7.53;;;8.60;99.90;;;;;;4852534;29;20208;-58
2023/04/10 04:43:11;;;;;;;8.10;7.30;;;8.70;99.90;;;;;;4844686;29;20235;-58
2023/04/10 04:45:40;;;;;;;8.23;7.33;;;8.60;99.90;;;;;;4859128;29;20248;-58
2023/04/10 04:48:08;;;;;;;10.60;7.80;;;8.70;99.90;;;;;;4862889;29;20252;-59
2023/04/10 04:50:40;;;;;;;8.90;7.60;;;8.60;99.90;;;;;;4862301;29;20243;-58
2023/04/10 04:53:08;;;;;;;9.60;7.63;;;8.60;99.90;;;;;;4860823;29;20231;-58
2023/04/10 04:55:36;;;;;;;7.90;7.10;;;8.60;99.90;;;;;;4852339;29;20256;-58
2023/04/10 04:58:05;;;;;;;7.53;6.77;;;8.70;99.90;;;;;;4859309;29;20226;-59
2023/04/10 05:00:33;;;;;;;9.30;7.47;;;8.70;99.90;;;;;;4858022;29;20310;-58
2023/04/10 05:03:01;;;;;;;10.37;7.40;;;8.70;99.90;;;;;;4857881;29;20231;-58
2023/04/10 05:05:30;;;;;;;9.30;7.50;;;8.80;99.90;;;;;;4860381;29;20223;-58
2023/04/10 05:07:59;;;;;;;8.47;7.30;;;8.80;99.90;;;;;;4858410;29;20235;-59
2023/04/10 05:10:27;;;;;;;8.30;7.10;;;8.80;99.90;;;;;;4840192;29;20244;-58
2023/04/10 05:12:56;;;;;;;9.13;6.57;;;8.80;99.90;;;;;;4851453;29;20696;-57
2023/04/10 05:15:24;;;;;;;8.40;6.83;;;8.80;99.90;;;;;;4859852;29;20223;-58
2023/04/10 05:17:52;;;;;;;7.97;7.03;;;8.80;99.90;;;;;;4856858;29;20224;-58
2023/04/10 05:20:21;;;;;;;8.60;7.57;;;8.80;99.90;;;;;;4859890;29;20751;-58
2023/04/10 05:22:51;;;;;;;7.93;7.13;;;8.80;99.90;;;;;;4861585;29;20779;-58
2023/04/10 05:25:21;;;;;;;8.40;7.23;;;8.80;99.90;;;;;;4859921;29;20199;-57
2023/04/10 05:27:49;;;;;;;8.20;7.13;;;8.90;99.90;;;;;;4858982;29;20353;-57
2023/04/10 05:30:17;;;;;;;7.87;7.07;;;8.90;99.90;;;;;;4855213;29;20283;-59
2023/04/10 05:32:45;;;;;;;12.50;7.50;;;8.90;99.90;;;;;;4857796;29;20228;-57
2023/04/10 05:35:14;;;;;;;8.70;7.80;;;8.90;99.90;;;;;;4863448;29;20714;-58
2023/04/10 05:37:45;;;;;;;9.77;8.00;;;8.90;99.90;;;;;;4859049;29;20631;-58
2023/04/10 05:40:13;;;;;;;8.50;7.70;;;8.80;99.90;;;;;;4862394;29;20616;-57
2023/04/10 05:42:43;;;;;;;10.50;8.00;;;8.80;99.90;;;;;;4858865;29;20227;-58
2023/04/10 05:45:11;;;;;;;8.87;7.80;;;8.90;99.90;;;;;;4858922;29;20623;-58
2023/04/10 05:47:39;;;;;;;8.33;7.47;;;8.90;99.90;;;;;;4861341;29;20854;-59
2023/04/10 05:50:08;;;;;;;9.23;7.23;;;8.90;99.90;;;;;;4855753;29;21077;-58
2023/04/10 05:52:36;;;;;;;10.43;7.20;;;9.00;99.90;;;;;;4851650;29;20255;-57
2023/04/10 05:55:05;;;;;;;7.33;6.63;;;9.00;99.90;;;;;;4852743;29;20252;-58
2023/04/10 05:57:33;;;;;;;8.30;7.30;;;9.10;99.90;;;;;;4852089;29;20242;-58
2023/04/10 06:00:04;;;;;;;7.83;7.13;;;9.20;99.90;;;;;;4854035;29;20253;-59
2023/04/10 06:02:32;;;;;;;9.07;7.93;;;9.30;99.90;;;;;;4853685;29;20258;-58
2023/04/10 06:05:01;;;;;;;7.93;7.13;;;9.30;99.90;;;;;;4854607;29;20350;-58
2023/04/10 06:07:31;;;;;;;9.37;8.43;;;9.30;99.90;;;;;;4855829;29;20671;-58
2023/04/10 06:09:59;;;;;;;8.10;7.30;;;9.40;99.90;;;;;;4857675;29;20242;-58
2023/04/10 06:12:27;;;;;;;8.90;7.20;;;9.30;99.90;;;;;;4857302;29;20219;-58
2023/04/10 06:14:56;;;;;;;9.67;7.67;;;9.40;99.90;;;;;;4851565;29;20627;-58
2023/04/10 06:17:27;;;;;;;9.53;7.73;;;9.40;99.90;;;;;;4859124;29;20359;-58
2023/04/10 06:19:55;;;;;;;8.80;7.83;;;9.50;99.90;;;;;;4854333;29;20238;-58
2023/04/10 06:22:23;;;;;;;8.73;7.83;;;9.40;99.90;;;;;;4858059;29;20201;-58
2023/04/10 06:24:52;;;;;;;9.60;8.20;;;9.40;99.90;;;;;;4856244;29;20235;-58
2023/04/10 06:27:20;;;;;;;10.30;8.90;;;9.40;99.90;;;;;;4848448;29;20216;-59
2023/04/10 06:29:48;;;;;;;8.13;7.30;;;9.50;99.90;;;;;;4854910;29;20619;-58
2023/04/10 06:32:16;;;;;;;8.47;7.67;;;9.60;99.90;;;;;;4852782;29;20291;-59
2023/04/10 06:34:46;;;;;;;9.27;8.10;;;9.60;99.90;;;;;;4861891;29;20195;-58
2023/04/10 06:37:14;;;;;;;8.87;7.83;;;9.60;99.90;;;;;;4842189;29;20204;-58
2023/04/10 06:39:43;;;;;;;9.67;7.87;;;9.70;99.90;;;;;;4859273;29;20322;-58
2023/04/10 06:42:11;;;;;;;8.77;7.87;;;9.70;99.90;;;;;;4859852;29;20243;-58
2023/04/10 06:44:39;;;;;;;8.63;7.70;;;9.80;99.90;;;;;;4855221;29;20219;-58
2023/04/10 06:47:07;;;;;;;9.33;7.40;;;9.80;99.90;;;;;;4857024;29;20683;-57
2023/04/10 06:49:36;;;;;;;8.23;7.40;;;9.90;99.90;;;;;;4854829;29;20199;-58
2023/04/10 06:52:06;;;;;;;8.27;7.47;;;9.90;99.90;;;;;;4853785;29;20191;-59
2023/04/10 06:54:34;;;;;;;8.77;7.77;;;10.00;99.90;;;;;;4854465;29;20223;-58
2023/04/10 06:57:03;;;;;;;8.97;7.37;;;10.10;99.90;;;;;;4850919;29;20230;-58
2023/04/10 06:59:33;;;;;;;7.90;7.10;;;10.20;99.90;;;;;;4854165;29;20279;-58
2023/04/10 07:02:02;;;;;;;8.30;7.43;;;10.30;99.90;;;;;;4856932;29;20231;-58
2023/04/10 07:04:31;;;;;;;9.00;7.53;;;10.40;99.90;;;;;;4851781;29;20571;-58
2023/04/10 07:06:59;;;;;;;8.37;7.57;;;10.50;99.90;;;;;;4852160;29;20711;-58
2023/04/10 07:09:30;;;;;;;9.77;8.33;;;10.60;99.90;;;;;;4851668;29;20310;-58
2023/04/10 07:11:59;;;;;;;9.43;8.03;;;10.60;99.90;;;;;;4850866;29;20258;-58
2023/04/10 07:14:27;;;;;;;8.17;7.27;;;10.70;99.90;;;;;;4852690;29;20219;-58
2023/04/10 07:16:55;;;;;;;8.93;7.83;;;10.80;99.90;;;;;;4852551;29;20286;-58
2023/04/10 07:19:23;;;;;;;8.57;7.23;;;10.90;99.90;;;;;;4849994;29;20573;-58
2023/04/10 07:21:51;;;;;;;8.53;7.63;;;10.90;99.90;;;;;;4855851;29;20250;-58
2023/04/10 07:24:20;;;;;;;9.10;7.80;;;11.00;99.90;;;;;;4847895;29;20591;-59
2023/04/10 07:26:50;;;;;;;9.33;7.50;;;11.00;99.90;;;;;;4853034;29;20223;-58
2023/04/10 07:29:18;;;;;;;10.20;7.67;;;11.10;99.90;;;;;;4858098;29;20263;-58
2023/04/10 07:31:46;;;;;;;9.70;7.37;;;11.00;99.90;;;;;;4855574;29;20231;-58
2023/04/10 07:34:15;;;;;;;8.40;7.50;;;11.10;99.90;;;;;;4851137;29;20200;-58
2023/04/10 07:36:43;;;;;;;9.50;7.00;;;11.10;99.90;;;;;;4856362;29;20268;-58
2023/04/10 07:39:13;;;;;;;8.40;7.50;;;11.10;99.90;;;;;;4852690;29;20666;-59
2023/04/10 07:41:41;;;;;;;8.17;7.37;;;11.10;99.90;;;;;;4857803;29;20262;-59
2023/04/10 07:44:12;;;;;;;8.00;6.77;;;11.20;99.90;;;;;;4857846;29;20223;-57
2023/04/10 07:46:40;;;;;;;8.30;7.40;;;11.30;99.90;;;;;;4848878;29;20203;-58
2023/04/10 07:49:08;;;;;;;9.10;7.13;;;11.30;99.90;;;;;;4858486;29;20248;-57
2023/04/10 07:51:36;;;;;;;8.67;7.33;;;11.50;99.90;;;;;;4848404;29;20537;-58
2023/04/10 07:54:05;;;;;;;11.27;7.57;;;11.60;99.90;;;;;;4850802;29;20223;-58
2023/04/10 07:56:33;;;;;;;8.00;6.97;;;11.70;99.90;;;;;;4855424;29;20231;-58
2023/04/10 07:59:01;;;;;;;9.43;7.27;;;11.90;99.90;;;;;;4847547;29;20287;-57
2023/04/10 08:01:30;;;;;;;8.50;7.50;;;11.90;99.90;;;;;;4852717;29;20610;-58
2023/04/10 08:03:59;;;;;;;8.67;7.73;;;11.90;99.90;;;;;;4849037;29;20227;-58
2023/04/10 08:06:32;;;;;;;7.80;7.00;;;11.90;99.90;;;;;;4851825;29;20236;-59
2023/04/10 08:09:01;;;;;;;8.17;7.37;;;12.00;99.90;;;;;;4849960;29;20591;-58
2023/04/10 08:11:30;;;;;;;8.17;7.20;;;12.00;99.90;;;;;;4850661;29;20607;-58
2023/04/10 08:14:01;;;;;;;9.00;7.23;;;11.90;99.90;;;;;;4851085;29;20230;-59
2023/04/10 08:16:32;;;;;;;7.80;7.00;;;11.90;99.90;;;;;;4854880;29;20199;-59
2023/04/10 08:19:01;;;;;;;8.07;7.10;;;12.00;99.90;;;;;;4850231;29;20231;-58
2023/04/10 08:21:31;;;;;;;7.73;6.97;;;12.10;99.90;;;;;;4857590;29;20270;-58
2023/04/10 08:24:01;;;;;;;7.57;6.77;;;12.10;99.90;;;;;;4854104;29;20275;-58
2023/04/10 08:26:29;;;;;;;8.23;7.30;;;12.30;99.90;;;;;;4851440;29;20234;-59
2023/04/10 08:28:59;;;;;;;8.03;7.23;;;12.30;99.90;;;;;;4844929;29;20231;-58
2023/04/10 08:31:30;;;;;;;8.93;7.47;;;12.30;99.90;;;;;;4854609;29;20200;-58
2023/04/10 08:33:58;;;;;;;10.07;7.40;;;12.30;99.90;;;;;;4855385;29;20238;-58
2023/04/10 08:36:27;;;;;;;8.23;7.30;;;12.50;99.90;;;;;;4856465;29;20223;-59
2023/04/10 08:38:56;;;;;;;8.00;6.63;;;12.50;99.90;;;;;;4849832;29;20227;-58
2023/04/10 08:41:24;;;;;;;8.70;7.13;;;12.50;99.90;;;;;;4846702;29;20251;-58
2023/04/10 08:43:52;;;;;;;8.00;7.20;;;12.50;99.90;;;;;;4850869;29;20211;-58
2023/04/10 08:46:24;;;;;;;7.63;6.83;;;12.60;99.90;;;;;;4854376;29;20187;-59
2023/04/10 08:49:01;;;;;;;8.53;6.73;;;12.60;99.90;;;;;;4848541;29;20239;-58
2023/04/10 08:51:35;;;;;;;7.43;6.73;;;12.70;99.90;;;;;;4847870;29;20637;-58
2023/04/10 08:54:07;;;;;;;9.67;7.20;;;12.80;99.90;;;;;;4852445;29;20320;-58
2023/04/10 08:56:37;;;;;;;8.47;6.63;;;12.90;99.90;;;;;;4856361;29;20227;-59
2023/04/10 08:59:07;;;;;;;7.90;7.10;;;13.10;99.90;;;;;;4853093;29;20273;-58
2023/04/10 09:01:35;;;;;;;8.23;7.03;;;13.20;99.90;;;;;;4855763;29;20877;-58
2023/04/10 09:04:06;;;;;;;7.20;6.50;;;13.10;99.90;;;;;;4854192;29;20223;-58
2023/04/10 09:06:35;;;;;;;7.67;6.77;;;13.20;99.90;;;;;;4850960;29;20242;-58
2023/04/10 09:09:03;;;;;;;7.10;6.40;;;13.20;99.90;;;;;;4850473;29;20255;-58
2023/04/10 09:11:59;;;;;;;8.03;7.13;;;13.30;99.90;;;;;;4853575;29;20254;-58
2023/04/10 09:14:29;;;;;;;7.53;6.73;;;13.40;99.90;;;;;;4847528;29;20318;-58
2023/04/10 09:17:14;;;;;;;8.03;6.77;;;13.40;99.90;;;;;;4854575;29;20234;-58
2023/04/10 09:19:45;;;;;;;9.07;7.20;;;13.50;99.90;;;;;;4850398;29;20239;-59
2023/04/10 09:22:13;;;;;;;8.53;6.80;;;13.60;99.90;;;;;;4852493;29;20219;-58
2023/04/10 09:24:43;;;;;;;7.40;6.50;;;13.70;99.90;;;;;;4849713;29;20628;-58
2023/04/10 09:27:28;;;;;;;7.73;7.00;;;13.80;99.90;;;;;;4849355;29;20280;-58
2023/04/10 09:29:56;;;;;;;11.27;6.63;;;13.70;99.90;;;;;;4854047;29;20644;-58
2023/04/10 09:32:38;;;;;;;7.97;7.17;;;13.70;99.90;;;;;;4850285;29;20771;-58
2023/04/10 09:35:09;;;;;;;6.97;6.30;;;13.60;99.90;;;;;;4855606;29;20223;-58
2023/04/10 09:37:39;;;;;;;7.20;6.50;;;13.70;99.90;;;;;;4855495;29;20200;-58
2023/04/10 09:40:20;;;;;;;8.43;6.67;;;13.70;99.90;;;;;;4856025;29;20223;-58
2023/04/10 09:42:49;;;;;;;7.77;6.87;;;13.80;99.90;;;;;;4855736;29;20774;-58
2023/04/10 09:45:18;;;;;;;7.57;6.87;;;14.00;99.90;;;;;;4858301;29;20322;-58
2023/04/10 09:48:02;;;;;;;6.83;6.13;;;14.30;99.90;;;;;;4856960;29;20227;-58
2023/04/10 09:50:36;;;;;;;7.47;6.73;;;14.50;99.90;;;;;;4854868;29;20275;-58
2023/04/10 09:53:07;;;;;;;6.87;6.30;;;14.70;99.90;;;;;;4854996;29;20726;-58
2023/04/10 09:55:36;;;;;;;7.57;6.30;;;14.80;99.90;;;;;;4842610;29;20643;-58
2023/04/10 09:58:05;;;;;;;8.73;6.77;;;14.90;99.90;;;;;;4851495;29;20567;-58
2023/04/10 10:00:40;;;;;;;7.23;6.53;;;14.90;99.90;;;;;;4853660;29;20236;-58
2023/04/10 10:03:10;;;;;;;8.43;6.73;;;15.00;99.90;;;;;;4853985;29;20249;-58
2023/04/10 10:05:43;;;;;;;10.57;6.73;;;15.20;99.90;;;;;;4851583;29;20268;-59
2023/04/10 10:08:13;;;;;;;8.90;6.73;;;15.30;99.90;;;;;;4847073;29;20236;-59
2023/04/10 10:10:46;;;;;;;8.43;6.80;;;15.30;99.90;;;;;;4849869;29;20222;-58
2023/04/10 10:13:17;;;;;;;6.47;5.97;;;15.50;99.90;;;;;;4853123;29;20204;-59
2023/04/10 10:15:51;;;;;;;7.30;6.60;;;15.50;99.90;;;;;;4849507;29;20729;-58
2023/04/10 10:18:24;;;;;;;7.17;6.47;;;15.50;99.90;;;;;;4852025;29;20289;-59
2023/04/10 10:20:54;;;;;;;6.27;5.67;;;15.50;99.90;;;;;;4855231;29;20228;-59
2023/04/10 10:23:23;;;;;;;6.07;5.57;;;15.60;99.90;;;;;;4853422;29;20228;-59
2023/04/10 10:25:54;;;;;;;6.20;5.67;;;15.70;99.90;;;;;;4853355;29;20719;-59
2023/04/10 10:28:24;;;;;;;6.23;5.73;;;15.80;99.90;;;;;;4854402;29;20583;-59
2023/04/10 10:30:53;;;;;;;5.37;4.90;;;15.90;99.90;;;;;;4855704;29;20221;-59
2023/04/10 10:33:22;;;;;;;6.00;5.33;;;15.90;99.90;;;;;;4851531;29;20617;-58
2023/04/10 10:35:50;;;;;;;5.37;4.87;;;15.90;99.90;;;;;;4856964;29;20244;-59
2023/04/10 10:38:21;;;;;;;5.50;5.00;;;15.90;99.90;;;;;;4839966;29;20227;-58
2023/04/10 10:40:59;;;;;;;6.23;4.80;;;15.90;99.90;;;;;;4854864;29;20736;-58
2023/04/10 10:43:36;;;;;;;4.80;4.50;;;15.90;99.90;;;;;;4857048;29;20266;-58
2023/04/10 10:46:09;;;;;;;4.90;4.50;;;16.00;99.90;;;;;;4854971;29;20257;-60
2023/04/10 10:48:37;;;;;;;5.67;5.10;;;16.20;99.90;;;;;;4850355;29;20231;-59
2023/04/10 10:51:07;;;;;;;5.23;4.47;;;16.30;99.90;;;;;;4852212;29;20303;-59
2023/04/10 10:53:39;;;;;;;4.90;4.50;;;16.20;99.90;;;;;;4853001;29;20242;-59
2023/04/10 10:56:36;;;;;;;4.60;4.30;;;16.20;99.90;;;;;;4852813;29;20627;-59
2023/04/10 10:59:04;;;;;;;4.60;4.23;;;16.20;99.90;;;;;;4856023;29;20302;-59
2023/04/10 11:01:32;;;;;;;5.50;4.33;;;16.10;99.90;;;;;;4850412;29;20266;-59
2023/04/10 11:04:00;;;;;;;5.03;4.63;;;16.10;99.90;;;;;;4852794;29;20287;-59
2023/04/10 11:06:51;;;;;;;6.10;4.70;;;16.00;99.90;;;;;;4849234;29;20219;-59
2023/04/10 11:09:49;;;;;;;4.57;4.27;;;16.10;99.90;;;;;;4850952;29;20235;-59
2023/04/10 11:12:21;;;;;;;4.57;4.27;;;16.20;99.90;;;;;;4855627;29;20223;-59
2023/04/10 11:14:58;;;;;;;4.40;4.17;;;16.20;99.90;;;;;;4851953;29;20220;-59
2023/04/10 11:17:57;;;;;;;4.57;4.13;;;16.20;99.90;;;;;;4857691;29;20606;-59
2023/04/10 11:20:26;;;;;;;4.57;4.17;;;16.10;99.90;;;;;;4781028;29;20244;-59
2023/04/10 11:23:09;;;;;;;5.00;4.47;;;16.10;99.90;;;;;;4843406;29;20229;-59
2023/04/10 11:25:53;;;;;;;4.40;4.10;;;16.10;99.90;;;;;;4848916;29;20200;-58
2023/04/10 11:28:45;;;;;;;4.97;4.60;;;16.10;99.90;;;;;;4852296;29;20196;-59
2023/04/10 11:31:20;;;;;;;4.37;4.07;;;16.10;99.90;;;;;;4851335;29;20231;-59
2023/04/10 11:34:00;;;;;;;4.70;4.40;;;16.10;99.90;;;;;;4852143;29;20247;-58
2023/04/10 11:36:28;;;;;;;4.43;4.07;;;16.00;99.90;;;;;;4853714;29;20215;-59
2023/04/10 11:38:58;;;;;;;4.60;4.20;;;16.00;99.90;;;;;;4853628;29;20250;-59
2023/04/10 11:41:32;;;;;;;4.33;4.03;;;16.10;99.90;;;;;;4858029;29;20290;-59
2023/04/10 11:44:02;;;;;;;4.33;4.10;;;16.10;99.90;;;;;;4855653;29;20240;-59
2023/04/10 11:46:31;;;;;;;5.13;4.10;;;16.00;99.90;;;;;;4859604;29;20255;-58
2023/04/10 11:49:00;;;;;;;4.77;4.40;;;15.90;99.90;;;;;;4856341;29;20257;-58
2023/04/10 11:51:30;;;;;;;5.10;4.40;;;15.80;99.90;;;;;;4852438;29;20251;-58
2023/04/10 11:54:09;;;;;;;5.47;4.80;;;15.60;99.90;;;;;;4857056;29;20259;-59
2023/04/10 11:56:40;;;;;;;5.10;4.70;;;15.60;99.90;;;;;;4854002;29;20223;-59
2023/04/10 11:59:09;;;;;;;5.13;4.63;;;15.50;99.90;;;;;;4851992;29;20232;-58
2023/04/10 12:01:41;;;;;;;5.23;4.87;;;15.40;99.90;;;;;;4853431;29;20645;-59
2023/04/10 12:04:17;;;;;;;5.10;4.70;;;15.20;99.90;;;;;;4853781;29;20249;-59
2023/04/10 12:06:46;;;;;;;5.67;5.27;;;15.00;99.90;;;;;;4846666;29;20231;-59
2023/04/10 12:09:16;;;;;;;5.70;5.30;;;14.90;99.90;;;;;;4851814;29;20227;-59
2023/04/10 12:11:58;;;;;;;5.83;5.23;;;14.90;99.90;;;;;;4855387;29;20211;-59
2023/04/10 12:14:31;;;;;;;5.50;5.00;;;14.80;99.90;;;;;;4852395;29;20235;-59
2023/04/10 12:17:00;;;;;;;5.93;5.43;;;14.80;99.90;;;;;;4849104;29;20227;-59
2023/04/10 12:19:29;;;;;;;6.07;5.47;;;14.80;99.90;;;;;;4850516;29;20232;-59
2023/04/10 12:22:00;;;;;;;5.77;5.37;;;14.80;99.90;;;;;;4847360;29;20232;-58
2023/04/10 12:24:42;;;;;;;5.50;4.90;;;14.80;99.90;;;;;;4852227;29;20239;-59
2023/04/10 12:27:17;;;;;;;5.30;4.80;;;14.80;99.90;;;;;;4851415;29;20227;-59
2023/04/10 12:29:46;;;;;;;5.07;4.73;;;14.80;99.90;;;;;;4847551;29;20231;-59
2023/04/10 12:32:15;;;;;;;5.40;4.80;;;14.70;99.90;;;;;;4858008;29;20235;-59
2023/04/10 12:34:50;;;;;;;5.90;5.30;;;14.70;99.90;;;;;;4843849;29;20617;-59
2023/04/10 12:37:19;;;;;;;5.80;5.30;;;14.70;99.90;;;;;;4848922;29;20203;-60
2023/04/10 12:39:48;;;;;;;6.20;5.60;;;14.70;99.90;;;;;;4857699;29;20326;-60
2023/04/10 12:42:19;;;;;;;5.73;5.23;;;14.70;99.90;;;;;;4857166;29;20234;-60
2023/04/10 12:44:52;;;;;;;5.10;4.70;;;14.70;99.90;;;;;;4851216;29;20256;-59
2023/04/10 12:47:21;;;;;;;5.20;4.90;;;14.70;99.90;;;;;;4856925;29;20220;-59
2023/04/10 12:50:08;;;;;;;5.03;4.60;;;14.70;99.90;;;;;;4858717;29;20737;-60
2023/04/10 12:52:39;;;;;;;5.70;5.27;;;14.60;99.90;;;;;;4854032;29;20192;-60
2023/04/10 12:55:12;;;;;;;5.43;5.00;;;14.50;99.90;;;;;;4858694;29;20204;-58
2023/04/10 12:57:42;;;;;;;5.83;5.43;;;14.40;99.90;;;;;;4850135;29;20606;-59
2023/04/10 13:00:12;;;;;;;6.40;5.70;;;14.30;99.90;;;;;;4855087;29;20714;-59
2023/04/10 13:02:41;;;;;;;6.07;5.57;;;14.20;99.90;;;;;;4853963;29;20227;-59
2023/04/10 13:05:11;;;;;;;5.43;5.07;;;14.20;99.90;;;;;;4862540;29;20227;-59